createdAt,value
2019-01-18T00:00:05.153Z,0.30
2019-01-18T00:02:34.145Z,0.30
2019-01-18T00:05:02.361Z,0.30
2019-01-18T00:07:30.570Z,0.20
2019-01-18T00:09:58.780Z,0.20
2019-01-18T00:12:26.995Z,0.20
2019-01-18T00:14:55.194Z,0.20
2019-01-18T00:17:23.406Z,0.10
2019-01-18T00:19:51.608Z,0.00
2019-01-18T00:22:19.828Z,0.10
2019-01-18T00:24:48.032Z,0.10
2019-01-18T00:27:16.236Z,0.10
2019-01-18T00:29:44.463Z,0.10
2019-01-18T00:32:12.665Z,0.10
2019-01-18T00:34:40.876Z,0.10
2019-01-18T00:37:09.080Z,0.00
2019-01-18T00:39:37.300Z,0.10
2019-01-18T00:42:05.508Z,0.10
2019-01-18T00:44:33.717Z,0.10
2019-01-18T00:47:01.932Z,0.10
2019-01-18T00:49:30.142Z,0.10
2019-01-18T00:51:58.357Z,0.00
2019-01-18T00:54:26.564Z,-0.10
2019-01-18T00:56:54.789Z,0.00
2019-01-18T00:59:22.996Z,0.00
2019-01-18T01:01:51.205Z,0.00
2019-01-18T01:04:19.418Z,0.00
2019-01-18T01:06:47.623Z,0.00
2019-01-18T01:09:15.836Z,0.00
2019-01-18T01:11:44.051Z,0.00
2019-01-18T01:14:12.252Z,0.00
2019-01-18T01:16:40.473Z,-0.10
2019-01-18T01:19:08.728Z,-0.10
2019-01-18T01:21:37.048Z,0.00
2019-01-18T01:24:05.253Z,0.00
2019-01-18T01:26:33.469Z,0.00
2019-01-18T01:29:01.688Z,0.00
2019-01-18T01:31:29.892Z,0.00
2019-01-18T01:33:58.097Z,0.10
2019-01-18T01:36:26.337Z,0.30
2019-01-18T01:38:54.541Z,0.30
2019-01-18T01:41:22.753Z,0.30
2019-01-18T01:43:50.961Z,0.30
2019-01-18T01:46:19.181Z,0.30
2019-01-18T01:48:47.384Z,0.30
2019-01-18T01:51:35.030Z,0.20
2019-01-18T01:54:03.237Z,0.20
2019-01-18T01:56:31.459Z,0.20
2019-01-18T01:58:59.929Z,0.10
2019-01-18T02:01:28.144Z,0.00
2019-01-18T02:03:56.358Z,-0.10
2019-01-18T02:06:24.588Z,-0.10
2019-01-18T02:08:52.801Z,-0.10
2019-01-18T02:11:21.013Z,-0.10
2019-01-18T02:13:49.236Z,-0.10
2019-01-18T02:16:17.450Z,-0.10
2019-01-18T02:18:45.668Z,0.00
2019-01-18T02:21:13.877Z,0.00
2019-01-18T02:23:42.080Z,0.00
2019-01-18T02:26:10.292Z,-0.10
2019-01-18T02:28:38.500Z,-0.20
2019-01-18T02:31:06.716Z,-0.20
2019-01-18T02:33:34.932Z,-0.20
2019-01-18T02:36:03.146Z,-0.20
2019-01-18T02:38:31.353Z,-0.20
2019-01-18T02:40:59.574Z,-0.20
2019-01-18T02:43:27.789Z,-0.10
2019-01-18T02:45:55.996Z,-0.20
2019-01-18T02:48:24.308Z,-0.20
2019-01-18T02:50:52.492Z,-0.20
2019-01-18T02:53:20.705Z,-0.20
2019-01-18T02:55:48.921Z,-0.30
2019-01-18T02:58:17.144Z,-0.30
2019-01-18T03:00:45.360Z,-0.30
2019-01-18T03:03:13.581Z,-0.40
2019-01-18T03:05:41.788Z,-0.40
2019-01-18T03:08:10.009Z,-0.50
2019-01-18T03:10:38.225Z,-0.40
2019-01-18T03:13:06.430Z,-0.50
2019-01-18T03:15:34.653Z,-0.40
2019-01-18T03:18:02.939Z,-0.40
2019-01-18T03:20:31.152Z,-0.40
2019-01-18T03:22:59.405Z,-0.50
2019-01-18T03:25:27.614Z,-0.70
2019-01-18T03:27:55.841Z,-0.70
2019-01-18T03:30:24.325Z,-0.80
2019-01-18T03:32:52.539Z,-0.90
2019-01-18T03:35:22.401Z,-1.00
2019-01-18T03:37:50.607Z,-1.10
2019-01-18T03:40:21.067Z,-1.10
2019-01-18T03:42:49.348Z,-1.00
2019-01-18T03:45:19.927Z,-0.90
2019-01-18T03:47:48.192Z,-0.90
2019-01-18T03:50:21.893Z,-0.90
2019-01-18T03:52:50.097Z,-1.00
2019-01-18T03:55:18.389Z,-1.00
2019-01-18T03:57:46.629Z,-1.10
2019-01-18T04:00:25.718Z,-1.20
2019-01-18T04:02:50.817Z,-1.10
2019-01-18T04:05:19.050Z,-1.20
2019-01-18T04:07:47.507Z,-1.20
2019-01-18T04:10:18.960Z,-1.30
2019-01-18T04:12:47.173Z,-1.40
2019-01-18T04:15:21.068Z,-1.50
2019-01-18T04:17:49.313Z,-1.60
2019-01-18T04:20:20.281Z,-1.80
2019-01-18T04:22:48.488Z,-1.90
2019-01-18T04:25:18.355Z,-2.10
2019-01-18T04:27:46.576Z,-2.20
2019-01-18T04:30:18.090Z,-2.30
2019-01-18T04:32:46.301Z,-2.20
2019-01-18T04:35:14.604Z,-2.00
2019-01-18T04:37:42.824Z,-2.00
2019-01-18T04:40:17.054Z,-2.00
2019-01-18T04:42:45.291Z,-2.00
2019-01-18T04:45:13.509Z,-2.00
2019-01-18T04:47:41.720Z,-2.10
2019-01-18T04:50:15.852Z,-2.00
2019-01-18T04:52:44.063Z,-1.90
2019-01-18T04:55:12.281Z,-1.90
2019-01-18T04:57:40.492Z,-1.80
2019-01-18T05:00:20.585Z,-1.80
2019-01-18T05:02:48.808Z,-1.80
2019-01-18T05:05:17.024Z,-1.80
2019-01-18T05:07:45.257Z,-1.70
2019-01-18T05:10:16.668Z,-1.60
2019-01-18T05:12:44.897Z,-1.50
2019-01-18T05:15:16.597Z,-1.50
2019-01-18T05:17:44.825Z,-1.50
2019-01-18T05:20:13.053Z,-1.50
2019-01-18T05:22:41.260Z,-1.60
2019-01-18T05:25:12.425Z,-1.60
2019-01-18T05:27:40.641Z,-1.70
2019-01-18T05:30:14.972Z,-1.70
2019-01-18T05:32:43.189Z,-1.70
2019-01-18T05:35:11.400Z,-1.70
2019-01-18T05:37:39.626Z,-1.60
2019-01-18T05:40:11.097Z,-1.60
2019-01-18T05:42:39.361Z,-1.70
2019-01-18T05:45:10.960Z,-1.70
2019-01-18T05:47:39.180Z,-1.70
2019-01-18T05:50:13.724Z,-1.80
2019-01-18T05:52:41.941Z,-1.70
2019-01-18T05:55:10.153Z,-1.80
2019-01-18T05:57:38.393Z,-1.80
2019-01-18T06:00:13.852Z,-1.90
2019-01-18T06:02:42.080Z,-1.90
2019-01-18T06:05:13.727Z,-1.90
2019-01-18T06:07:41.973Z,-2.00
2019-01-18T06:10:10.195Z,-2.00
2019-01-18T06:12:38.409Z,-2.10
2019-01-18T06:15:08.760Z,-2.10
2019-01-18T06:17:36.974Z,-2.00
2019-01-18T06:20:08.502Z,-1.80
2019-01-18T06:22:36.715Z,-1.70
2019-01-18T06:25:05.727Z,-1.70
2019-01-18T06:27:33.943Z,-1.70
2019-01-18T06:30:02.228Z,-1.70
2019-01-18T06:32:30.501Z,-1.60
2019-01-18T06:34:58.729Z,-1.60
2019-01-18T06:37:26.952Z,-1.60
2019-01-18T06:39:55.157Z,-1.70
2019-01-18T06:42:23.393Z,-1.70
2019-01-18T06:44:51.629Z,-1.70
2019-01-18T06:47:19.896Z,-1.60
2019-01-18T06:49:48.121Z,-1.60
2019-01-18T06:52:16.333Z,-1.70
2019-01-18T06:54:44.575Z,-1.60
2019-01-18T06:57:12.829Z,-1.60
2019-01-18T06:59:41.037Z,-1.70
2019-01-18T07:02:09.260Z,-1.70
2019-01-18T07:04:41.466Z,-1.70
2019-01-18T07:07:07.773Z,-1.70
2019-01-18T07:09:35.995Z,-1.60
2019-01-18T07:12:04.230Z,-1.60
2019-01-18T07:14:32.452Z,-1.50
2019-01-18T07:17:00.669Z,-1.50
2019-01-18T07:19:28.977Z,-1.40
2019-01-18T07:21:57.185Z,-1.40
2019-01-18T07:24:25.408Z,-1.30
2019-01-18T07:26:53.623Z,-1.30
2019-01-18T07:29:21.852Z,-1.30
2019-01-18T07:31:50.058Z,-1.30
2019-01-18T07:34:18.302Z,-1.30
2019-01-18T07:36:46.508Z,-1.30
2019-01-18T07:39:14.738Z,-1.30
2019-01-18T07:41:42.957Z,-1.20
2019-01-18T07:44:11.191Z,-1.20
2019-01-18T07:46:39.429Z,-1.20
2019-01-18T07:49:07.671Z,-1.10
2019-01-18T07:51:35.857Z,-1.10
2019-01-18T07:54:04.080Z,-1.10
2019-01-18T07:56:32.293Z,-1.00
2019-01-18T07:59:00.517Z,-0.90
2019-01-18T08:01:28.757Z,-0.90
2019-01-18T08:03:56.965Z,-0.90
2019-01-18T08:06:25.187Z,-0.90
2019-01-18T08:08:53.409Z,-0.80
2019-01-18T08:11:21.632Z,-0.80
2019-01-18T08:13:49.849Z,-0.80
2019-01-18T08:16:18.333Z,-0.80
2019-01-18T08:18:46.558Z,-0.70
2019-01-18T08:21:14.842Z,-0.70
2019-01-18T08:23:43.061Z,-0.60
2019-01-18T08:26:11.298Z,-0.60
2019-01-18T08:28:39.512Z,-0.60
2019-01-18T08:31:07.728Z,-0.50
2019-01-18T08:33:35.948Z,-0.50
2019-01-18T08:36:04.188Z,-0.40
2019-01-18T08:38:32.401Z,-0.40
2019-01-18T08:41:00.644Z,-0.40
2019-01-18T08:43:28.856Z,-0.40
2019-01-18T08:45:57.079Z,-0.40
2019-01-18T08:48:25.362Z,-0.40
2019-01-18T08:50:53.630Z,-0.30
2019-01-18T08:53:21.837Z,-0.20
2019-01-18T08:55:50.058Z,-0.20
2019-01-18T08:58:18.284Z,-0.10
2019-01-18T09:00:46.505Z,-0.10
2019-01-18T09:03:14.729Z,0.00
2019-01-18T09:05:42.948Z,0.10
2019-01-18T09:08:11.186Z,0.10
2019-01-18T09:10:40.279Z,0.10
2019-01-18T09:13:08.510Z,0.10
2019-01-18T09:15:36.729Z,0.10
2019-01-18T09:18:04.941Z,0.10
2019-01-18T09:20:33.165Z,0.10
2019-01-18T09:23:01.380Z,0.20
2019-01-18T09:25:29.584Z,0.30
2019-01-18T09:27:57.813Z,0.40
2019-01-18T09:30:30.873Z,0.50
2019-01-18T09:32:59.093Z,0.60
2019-01-18T09:35:27.304Z,0.60
2019-01-18T09:37:58.653Z,0.60
2019-01-18T09:40:30.055Z,0.60
2019-01-18T09:42:58.270Z,0.70
2019-01-18T09:45:26.484Z,1.10
2019-01-18T09:47:54.704Z,1.90
2019-01-18T09:50:25.863Z,2.60
2019-01-18T09:52:54.081Z,3.30
2019-01-18T09:55:22.285Z,3.90
2019-01-18T09:57:50.525Z,4.40
2019-01-18T10:00:27.089Z,4.50
2019-01-18T10:02:56.247Z,4.50
2019-01-18T10:05:24.453Z,4.80
2019-01-18T10:07:52.657Z,5.20
2019-01-18T10:10:22.912Z,5.60
2019-01-18T10:12:51.121Z,6.00
2019-01-18T10:15:22.764Z,6.40
2019-01-18T10:17:50.989Z,6.70
2019-01-18T10:20:20.161Z,6.90
2019-01-18T10:22:50.009Z,7.10
2019-01-18T10:25:19.265Z,7.30
2019-01-18T10:27:47.469Z,7.60
2019-01-18T10:30:18.920Z,8.10
2019-01-18T10:32:47.134Z,8.40
2019-01-18T10:35:16.973Z,8.60
2019-01-18T10:37:45.187Z,8.60
2019-01-18T10:40:15.433Z,8.60
2019-01-18T10:42:44.409Z,8.50
2019-01-18T10:45:15.642Z,8.50
2019-01-18T10:47:43.984Z,8.30
2019-01-18T10:50:21.021Z,8.00
2019-01-18T10:52:49.236Z,7.50
2019-01-18T10:55:17.460Z,6.40
2019-01-18T10:57:45.678Z,5.70
2019-01-18T11:00:17.385Z,5.60
2019-01-18T11:02:45.610Z,6.10
2019-01-18T11:05:14.178Z,6.00
2019-01-18T11:07:42.417Z,5.50
2019-01-18T11:10:15.794Z,4.90
2019-01-18T11:12:44.014Z,4.20
2019-01-18T11:15:20.257Z,3.80
2019-01-18T11:17:48.480Z,4.30
2019-01-18T11:20:22.732Z,4.90
2019-01-18T11:22:52.881Z,5.50
2019-01-18T11:25:21.129Z,6.50
2019-01-18T11:27:49.401Z,7.80
2019-01-18T11:30:17.620Z,8.80
2019-01-18T11:32:45.850Z,9.10
2019-01-18T11:35:14.172Z,8.90
2019-01-18T11:37:42.387Z,8.80
2019-01-18T11:40:17.001Z,9.00
2019-01-18T11:42:45.325Z,9.90
2019-01-18T11:45:15.196Z,10.70
2019-01-18T11:47:43.422Z,11.60
2019-01-18T11:50:20.877Z,12.10
2019-01-18T11:52:49.138Z,11.40
2019-01-18T11:55:17.345Z,11.40
2019-01-18T11:57:45.564Z,11.50
2019-01-18T12:00:22.418Z,11.90
2019-01-18T12:02:51.395Z,11.80
2019-01-18T12:05:19.620Z,12.20
2019-01-18T12:07:47.840Z,11.90
2019-01-18T12:10:21.449Z,12.10
2019-01-18T12:12:49.669Z,12.00
2019-01-18T12:15:17.877Z,11.40
2019-01-18T12:17:46.296Z,11.10
2019-01-18T12:20:17.615Z,11.00
2019-01-18T12:22:45.805Z,10.70
2019-01-18T12:25:14.037Z,10.80
2019-01-18T12:27:42.246Z,10.70
2019-01-18T12:30:16.572Z,10.00
2019-01-18T12:32:44.841Z,9.90
2019-01-18T12:35:13.118Z,9.60
2019-01-18T12:37:41.329Z,9.80
2019-01-18T12:40:09.558Z,9.70
2019-01-18T12:42:37.772Z,10.00
2019-01-18T12:45:11.844Z,9.70
2019-01-18T12:47:40.074Z,9.10
2019-01-18T12:50:11.565Z,8.60
2019-01-18T12:52:39.774Z,7.80
2019-01-18T12:55:08.640Z,7.20
2019-01-18T12:57:36.862Z,6.40
2019-01-18T13:00:16.762Z,5.40
2019-01-18T13:02:44.983Z,4.60
2019-01-18T13:05:16.688Z,4.30
2019-01-18T13:07:46.627Z,4.00
2019-01-18T13:10:14.840Z,3.80
2019-01-18T13:12:43.065Z,3.60
2019-01-18T13:15:23.458Z,3.30
2019-01-18T13:17:52.511Z,2.90
2019-01-18T13:20:23.601Z,2.70
2019-01-18T13:22:51.852Z,2.40
2019-01-18T13:25:20.057Z,2.30
2019-01-18T13:27:48.272Z,2.30
2019-01-18T13:30:19.012Z,2.10
2019-01-18T13:32:47.236Z,2.10
2019-01-18T13:35:15.459Z,2.00
2019-01-18T13:37:43.660Z,2.10
2019-01-18T13:40:23.802Z,2.00
2019-01-18T13:42:52.021Z,2.00
2019-01-18T13:45:24.310Z,2.00
2019-01-18T13:47:50.177Z,1.80
2019-01-18T13:50:21.504Z,1.70
2019-01-18T13:52:49.713Z,1.60
2019-01-18T13:55:23.671Z,1.60
2019-01-18T13:57:52.035Z,1.70
2019-01-18T14:00:20.266Z,1.60
2019-01-18T14:02:48.777Z,1.70
2019-01-18T14:05:17.591Z,1.50
2019-01-18T14:07:45.803Z,1.50
2019-01-18T14:10:23.038Z,1.60
2019-01-18T14:12:51.250Z,1.60
2019-01-18T14:15:21.109Z,1.60
2019-01-18T14:17:49.351Z,1.50
2019-01-18T14:20:20.988Z,1.40
2019-01-18T14:22:50.349Z,1.60
2019-01-18T14:25:18.645Z,1.70
2019-01-18T14:27:46.864Z,1.70
2019-01-18T14:30:28.409Z,1.90
2019-01-18T14:32:56.627Z,1.80
2019-01-18T14:35:24.840Z,1.70
2019-01-18T14:37:53.058Z,1.60
2019-01-18T14:40:21.283Z,1.50
2019-01-18T14:42:52.439Z,1.40
2019-01-18T14:45:26.910Z,1.40
2019-01-18T14:47:55.117Z,1.40
2019-01-18T14:50:23.333Z,1.20
2019-01-18T14:52:51.585Z,1.30
2019-01-18T14:55:19.832Z,1.10
2019-01-18T14:57:48.113Z,0.90
2019-01-18T15:00:23.187Z,0.90
2019-01-18T15:02:51.475Z,0.80
2019-01-18T15:05:19.685Z,0.70
2019-01-18T15:07:47.909Z,0.70
2019-01-18T15:10:19.402Z,0.70
2019-01-18T15:12:50.854Z,0.70
2019-01-18T15:15:19.139Z,0.60
2019-01-18T15:17:50.115Z,0.60
2019-01-18T15:20:30.037Z,0.50
2019-01-18T15:22:58.254Z,0.50
2019-01-18T15:25:26.481Z,0.50
2019-01-18T15:27:54.817Z,0.50
2019-01-18T15:30:26.355Z,0.40
2019-01-18T15:32:54.626Z,0.40
2019-01-18T15:35:31.305Z,0.40
2019-01-18T15:37:59.521Z,0.40
2019-01-18T15:40:34.353Z,0.30
2019-01-18T15:43:03.244Z,0.20
2019-01-18T15:45:32.784Z,0.10
2019-01-18T15:48:00.989Z,0.10
2019-01-18T15:50:32.470Z,0.10
2019-01-18T15:53:00.682Z,0.10
2019-01-18T15:55:28.897Z,0.10
2019-01-18T15:57:57.231Z,0.20
2019-01-18T16:00:36.825Z,0.20
2019-01-18T16:03:06.690Z,0.30
2019-01-18T16:05:34.900Z,0.20
2019-01-18T16:08:03.123Z,0.20
2019-01-18T16:10:31.345Z,0.20
2019-01-18T16:12:59.569Z,0.10
2019-01-18T16:15:31.046Z,0.10
2019-01-18T16:17:59.256Z,0.10
2019-01-18T16:20:27.477Z,0.00
2019-01-18T16:22:55.684Z,0.00
2019-01-18T16:25:27.412Z,-0.20
2019-01-18T16:27:55.634Z,-0.20
2019-01-18T16:30:25.886Z,-0.30
2019-01-18T16:32:57.241Z,-0.30
2019-01-18T16:35:26.296Z,-0.40
2019-01-18T16:37:54.583Z,-0.40
2019-01-18T16:40:26.073Z,-0.40
2019-01-18T16:42:57.550Z,-0.50
2019-01-18T16:45:25.768Z,-0.50
2019-01-18T16:47:53.996Z,-0.60
2019-01-18T16:50:22.219Z,-0.70
2019-01-18T16:52:50.430Z,-0.60
2019-01-18T16:55:18.677Z,-0.60
2019-01-18T16:57:46.888Z,-0.70
2019-01-18T17:00:24.366Z,-0.70
2019-01-18T17:02:52.653Z,-0.70
2019-01-18T17:05:20.945Z,-0.70
2019-01-18T17:07:49.186Z,-0.70
2019-01-18T17:10:19.533Z,-0.80
2019-01-18T17:12:47.764Z,-0.80
2019-01-18T17:15:16.848Z,-0.70
2019-01-18T17:17:45.069Z,-0.80
2019-01-18T17:20:22.327Z,-0.80
2019-01-18T17:22:50.553Z,-0.80
2019-01-18T17:25:18.771Z,-0.80
2019-01-18T17:27:46.987Z,-0.80
2019-01-18T17:30:20.752Z,-0.90
2019-01-18T17:32:49.036Z,-1.00
2019-01-18T17:35:20.521Z,-1.00
2019-01-18T17:37:52.010Z,-1.00
2019-01-18T17:40:26.064Z,-1.00
2019-01-18T17:42:57.570Z,-1.10
2019-01-18T17:45:45.848Z,-1.10
2019-01-18T17:48:23.298Z,-1.10
2019-01-18T17:51:16.737Z,-1.20
2019-01-18T17:54:10.876Z,-1.20
2019-01-18T17:57:08.246Z,-1.30
2019-01-18T18:00:03.185Z,-1.30
2019-01-18T18:02:52.710Z,-1.40
2019-01-18T18:05:35.986Z,-1.40
2019-01-18T18:08:10.135Z,-1.40
2019-01-18T18:11:04.098Z,-1.40
2019-01-18T18:13:52.850Z,-1.30
2019-01-18T18:16:38.994Z,-1.30
2019-01-18T18:19:24.972Z,-1.30
2019-01-18T18:22:13.417Z,-1.30
2019-01-18T18:24:59.721Z,-1.30
2019-01-18T18:27:39.985Z,-1.20
2019-01-18T18:30:14.028Z,-1.10
2019-01-18T18:32:51.029Z,-1.10
2019-01-18T18:35:46.953Z,-1.10
2019-01-18T18:38:30.600Z,-1.00
2019-01-18T18:41:18.774Z,-1.00
2019-01-18T18:44:01.620Z,-1.00
2019-01-18T18:46:58.537Z,-1.00
2019-01-18T18:50:04.846Z,-1.00
2019-01-18T18:52:45.285Z,-1.00
2019-01-18T18:55:19.814Z,-1.00
2019-01-18T18:58:03.325Z,-1.00
2019-01-18T19:00:34.810Z,-1.00
2019-01-18T19:03:27.445Z,-0.90
2019-01-18T19:06:04.692Z,-0.90
2019-01-18T19:08:36.185Z,-1.00
2019-01-18T19:11:16.905Z,-1.00
2019-01-18T19:14:08.082Z,-1.00
2019-01-18T19:16:42.072Z,-1.10
2019-01-18T19:19:16.529Z,-1.30
2019-01-18T19:22:04.781Z,-1.40
2019-01-18T19:24:36.293Z,-1.50
2019-01-18T19:27:19.670Z,-1.40
2019-01-18T19:30:01.017Z,-1.50
2019-01-18T19:32:50.655Z,-1.40
2019-01-18T19:35:28.161Z,-1.40
2019-01-18T19:38:20.820Z,-1.40
2019-01-18T19:41:08.608Z,-1.40
2019-01-18T19:43:42.712Z,-1.40
2019-01-18T19:46:37.315Z,-1.40
2019-01-18T19:49:11.496Z,-1.30
2019-01-18T19:51:59.489Z,-1.30
2019-01-18T19:54:33.724Z,-1.30
2019-01-18T19:57:13.298Z,-1.40
2019-01-18T20:00:02.845Z,-1.30
2019-01-18T20:02:46.357Z,-1.20
2019-01-18T20:05:29.903Z,-1.30
2019-01-18T20:08:13.380Z,-1.30
2019-01-18T20:10:56.915Z,-1.30
2019-01-18T20:13:36.486Z,-1.30
2019-01-18T20:16:13.769Z,-1.40
2019-01-18T20:18:45.239Z,-1.40
2019-01-18T20:21:22.480Z,-1.50
2019-01-18T20:24:02.625Z,-1.50
2019-01-18T20:26:51.153Z,-1.50
2019-01-18T20:29:28.337Z,-1.50
2019-01-18T20:32:22.582Z,-1.50
2019-01-18T20:35:02.667Z,-1.50
2019-01-18T20:37:36.993Z,-1.50
2019-01-18T20:40:24.306Z,-1.50
2019-01-18T20:43:01.603Z,-1.60
2019-01-18T20:45:53.749Z,-1.60
2019-01-18T20:48:34.269Z,-1.70
2019-01-18T20:51:26.179Z,-1.60
2019-01-18T20:54:00.335Z,-1.60
2019-01-18T20:56:37.624Z,-1.50
2019-01-18T20:59:12.030Z,-1.50
2019-01-18T21:02:03.120Z,-1.50
2019-01-18T21:05:01.854Z,-1.50
2019-01-18T21:07:39.253Z,-1.50
2019-01-18T21:10:34.157Z,-1.50
2019-01-18T21:13:17.368Z,-1.40
2019-01-18T21:15:48.847Z,-1.50
2019-01-18T21:18:23.008Z,-1.50
2019-01-18T21:21:03.256Z,-1.40
2019-01-18T21:23:40.284Z,-1.40
2019-01-18T21:26:28.233Z,-1.50
2019-01-18T21:29:08.332Z,-1.50
2019-01-18T21:32:00.770Z,-1.50
2019-01-18T21:34:38.040Z,-1.60
2019-01-18T21:37:32.323Z,-1.60
2019-01-18T21:40:06.682Z,-1.60
2019-01-18T21:42:38.236Z,-1.50
2019-01-18T21:45:26.212Z,-1.50
2019-01-18T21:48:12.834Z,-1.60
2019-01-18T21:51:05.110Z,-1.60
2019-01-18T21:54:05.223Z,-1.50
2019-01-18T21:56:42.633Z,-1.60
2019-01-18T21:59:39.936Z,-1.60
2019-01-18T22:02:34.315Z,-1.60
2019-01-18T22:05:11.616Z,-1.60
2019-01-18T22:07:51.979Z,-1.70
2019-01-18T22:10:45.141Z,-1.70
2019-01-18T22:13:35.021Z,-1.60
2019-01-18T22:16:32.100Z,-1.60
2019-01-18T22:19:18.477Z,-1.50
2019-01-18T22:21:58.950Z,-1.50
2019-01-18T22:24:33.380Z,-1.50
2019-01-18T22:27:07.388Z,-1.50
2019-01-18T22:29:41.839Z,-1.60
2019-01-18T22:32:16.253Z,-1.60
2019-01-18T22:34:59.474Z,-1.60
2019-01-18T22:37:33.513Z,-1.60
2019-01-18T22:40:07.951Z,-1.60
2019-01-18T22:42:51.173Z,-1.60
2019-01-18T22:45:22.669Z,-1.60
2019-01-18T22:48:21.228Z,-1.60
2019-01-18T22:51:18.377Z,-1.70
2019-01-18T22:54:11.666Z,-1.70
2019-01-18T22:57:02.170Z,-1.70
2019-01-18T22:59:37.191Z,-1.80
2019-01-18T23:02:19.342Z,-1.70
2019-01-18T23:05:13.437Z,-1.60
2019-01-18T23:08:07.356Z,-1.60
2019-01-18T23:10:38.845Z,-1.70
2019-01-18T23:13:16.080Z,-1.80
2019-01-18T23:15:47.557Z,-1.70
2019-01-18T23:18:36.779Z,-1.70
2019-01-18T23:21:26.217Z,-1.70
2019-01-18T23:24:06.669Z,-1.70
2019-01-18T23:26:50.194Z,-1.70
2019-01-18T23:29:30.704Z,-1.70
2019-01-18T23:32:11.373Z,-1.80
2019-01-18T23:34:52.142Z,-1.90
2019-01-18T23:37:35.704Z,-1.90
2019-01-18T23:40:30.084Z,-2.00
2019-01-18T23:43:10.717Z,-2.00
2019-01-18T23:46:00.318Z,-2.10
2019-01-18T23:48:50.135Z,-2.10
2019-01-18T23:51:42.540Z,-2.20
2019-01-18T23:54:28.507Z,-2.20
2019-01-18T23:57:11.065Z,-2.20
2019-01-18T23:59:48.445Z,-2.30
